sensor_id;sensor_type;location;lat;lon;timestamp;pressure;altitude;pressure_sealevel;temperature;humidity
34925;BME280;21130;51.728;8.748;2023-11-21T00:01:44;99889.56;;;4.01;100.00
34925;BME280;21130;51.728;8.748;2023-11-21T00:04:10;99887.84;;;4.00;100.00
34925;BME280;21130;51.728;8.748;2023-11-21T00:06:37;99889.75;;;4.00;100.00
34925;BME280;21130;51.728;8.748;2023-11-21T00:09:05;99887.84;;;4.00;100.00
34925;BME280;21130;51.728;8.748;2023-11-21T00:11:33;99890.81;;;3.99;100.00
34925;BME280;21130;51.728;8.748;2023-11-21T00:14:00;99891.44;;;4.01;100.00
34925;BME280;21130;51.728;8.748;2023-11-21T00:16:26;99887.41;;;4.10;100.00
34925;BME280;21130;51.728;8.748;2023-11-21T00:18:53;99889.25;;;4.23;100.00
34925;BME280;21130;51.728;8.748;2023-11-21T00:21:20;99882.91;;;4.22;100.00
34925;BME280;21130;51.728;8.748;2023-11-21T00:23:46;99886.91;;;4.26;100.00
34925;BME280;21130;51.728;8.748;2023-11-21T00:26:15;99898.75;;;4.27;100.00
34925;BME280;21130;51.728;8.748;2023-11-21T00:28:41;99894.06;;;4.27;100.00
34925;BME280;21130;51.728;8.748;2023-11-21T00:31:08;99896.63;;;4.29;100.00
34925;BME280;21130;51.728;8.748;2023-11-21T00:33:33;99893.44;;;4.32;100.00
34925;BME280;21130;51.728;8.748;2023-11-21T00:36:00;99901.22;;;4.35;100.00
34925;BME280;21130;51.728;8.748;2023-11-21T00:38:26;99896.34;;;4.37;100.00
34925;BME280;21130;51.728;8.748;2023-11-21T00:40:53;99899.06;;;4.44;100.00
34925;BME280;21130;51.728;8.748;2023-11-21T00:43:23;99909.38;;;4.48;100.00
34925;BME280;21130;51.728;8.748;2023-11-21T00:45:51;99909.81;;;4.52;100.00
34925;BME280;21130;51.728;8.748;2023-11-21T00:48:17;99911.91;;;4.57;100.00
34925;BME280;21130;51.728;8.748;2023-11-21T00:50:44;99909.53;;;4.60;100.00
34925;BME280;21130;51.728;8.748;2023-11-21T00:53:11;99916.50;;;4.63;100.00
34925;BME280;21130;51.728;8.748;2023-11-21T00:55:37;99920.09;;;4.63;100.00
34925;BME280;21130;51.728;8.748;2023-11-21T00:58:05;99919.44;;;4.68;100.00
34925;BME280;21130;51.728;8.748;2023-11-21T01:00:33;99921.72;;;4.71;100.00
34925;BME280;21130;51.728;8.748;2023-11-21T01:03:00;99925.53;;;4.76;100.00
34925;BME280;21130;51.728;8.748;2023-11-21T01:05:27;99920.94;;;4.95;100.00
34925;BME280;21130;51.728;8.748;2023-11-21T01:07:54;99930.00;;;5.03;100.00
34925;BME280;21130;51.728;8.748;2023-11-21T01:10:21;99936.50;;;5.08;100.00
34925;BME280;21130;51.728;8.748;2023-11-21T01:12:47;99932.28;;;5.06;100.00
34925;BME280;21130;51.728;8.748;2023-11-21T01:15:14;99935.50;;;5.03;100.00
34925;BME280;21130;51.728;8.748;2023-11-21T01:17:42;99935.56;;;5.21;100.00
34925;BME280;21130;51.728;8.748;2023-11-21T01:20:09;99935.63;;;5.14;100.00
34925;BME280;21130;51.728;8.748;2023-11-21T01:22:38;99939.66;;;5.12;100.00
34925;BME280;21130;51.728;8.748;2023-11-21T01:25:05;99939.59;;;5.18;100.00
34925;BME280;21130;51.728;8.748;2023-11-21T01:27:32;99938.13;;;5.16;100.00
34925;BME280;21130;51.728;8.748;2023-11-21T01:29:59;99939.84;;;5.17;100.00
34925;BME280;21130;51.728;8.748;2023-11-21T01:32:26;99945.34;;;5.17;100.00
34925;BME280;21130;51.728;8.748;2023-11-21T01:34:57;99943.63;;;5.16;100.00
34925;BME280;21130;51.728;8.748;2023-11-21T01:37:24;99944.59;;;5.28;100.00
34925;BME280;21130;51.728;8.748;2023-11-21T01:39:53;99950.06;;;5.35;100.00
34925;BME280;21130;51.728;8.748;2023-11-21T01:42:20;99942.31;;;5.25;100.00
34925;BME280;21130;51.728;8.748;2023-11-21T01:44:47;99949.94;;;5.23;100.00
34925;BME280;21130;51.728;8.748;2023-11-21T01:47:14;99946.13;;;5.24;100.00
34925;BME280;21130;51.728;8.748;2023-11-21T01:49:43;99942.31;;;5.25;100.00
34925;BME280;21130;51.728;8.748;2023-11-21T01:52:12;99939.13;;;5.22;100.00
34925;BME280;21130;51.728;8.748;2023-11-21T01:54:39;99942.31;;;5.25;100.00
34925;BME280;21130;51.728;8.748;2023-11-21T01:57:05;99942.50;;;5.24;100.00
34925;BME280;21130;51.728;8.748;2023-11-21T01:59:34;99936.75;;;5.07;100.00
34925;BME280;21130;51.728;8.748;2023-11-21T02:02:02;99945.47;;;4.97;100.00
34925;BME280;21130;51.728;8.748;2023-11-21T02:04:30;99948.91;;;4.86;100.00
34925;BME280;21130;51.728;8.748;2023-11-21T02:06:56;99946.22;;;4.79;100.00
34925;BME280;21130;51.728;8.748;2023-11-21T02:09:26;99943.91;;;4.76;100.00
34925;BME280;21130;51.728;8.748;2023-11-21T02:11:53;99946.03;;;4.74;100.00
34925;BME280;21130;51.728;8.748;2023-11-21T02:14:20;99949.84;;;4.73;100.00
34925;BME280;21130;51.728;8.748;2023-11-21T02:16:47;99952.78;;;4.78;100.00
34925;BME280;21130;51.728;8.748;2023-11-21T02:19:17;99956.38;;;4.79;100.00
34925;BME280;21130;51.728;8.748;2023-11-21T02:21:45;99952.75;;;4.85;100.00
34925;BME280;21130;51.728;8.748;2023-11-21T02:24:14;99956.53;;;4.84;100.00
34925;BME280;21130;51.728;8.748;2023-11-21T02:26:43;99955.06;;;4.81;100.00
34925;BME280;21130;51.728;8.748;2023-11-21T02:29:11;99953.94;;;4.95;100.00
34925;BME280;21130;51.728;8.748;2023-11-21T02:31:38;99962.22;;;5.20;100.00
34925;BME280;21130;51.728;8.748;2023-11-21T02:34:13;99960.88;;;5.05;100.00
34925;BME280;21130;51.728;8.748;2023-11-21T02:36:40;99961.09;;;4.96;100.00
34925;BME280;21130;51.728;8.748;2023-11-21T02:39:08;99959.72;;;4.87;100.00
34925;BME280;21130;51.728;8.748;2023-11-21T02:41:36;99961.72;;;4.98;100.00
34925;BME280;21130;51.728;8.748;2023-11-21T02:44:03;99958.91;;;4.80;100.00
34925;BME280;21130;51.728;8.748;2023-11-21T02:46:31;99963.59;;;4.73;100.00
34925;BME280;21130;51.728;8.748;2023-11-21T02:48:59;99964.06;;;4.63;100.00
34925;BME280;21130;51.728;8.748;2023-11-21T02:51:25;99971.00;;;4.72;100.00
34925;BME280;21130;51.728;8.748;2023-11-21T02:53:52;99965.16;;;4.55;100.00
34925;BME280;21130;51.728;8.748;2023-11-21T02:56:18;99977.91;;;4.43;100.00
34925;BME280;21130;51.728;8.748;2023-11-21T02:58:46;99972.84;;;4.40;100.00
34925;BME280;21130;51.728;8.748;2023-11-21T03:01:13;99978.78;;;4.37;100.00
34925;BME280;21130;51.728;8.748;2023-11-21T03:03:39;99983.84;;;4.40;100.00
34925;BME280;21130;51.728;8.748;2023-11-21T03:06:07;99990.16;;;4.47;100.00
34925;BME280;21130;51.728;8.748;2023-11-21T03:08:33;99984.00;;;4.52;100.00
34925;BME280;21130;51.728;8.748;2023-11-21T03:11:00;99993.28;;;4.58;100.00
34925;BME280;21130;51.728;8.748;2023-11-21T03:13:28;99996.84;;;4.65;100.00
34925;BME280;21130;51.728;8.748;2023-11-21T03:15:56;99994.72;;;4.67;100.00
34925;BME280;21130;51.728;8.748;2023-11-21T03:18:22;99991.72;;;4.68;100.00
34925;BME280;21130;51.728;8.748;2023-11-21T03:20:49;99987.25;;;4.74;100.00
34925;BME280;21130;51.728;8.748;2023-11-21T03:23:15;99992.09;;;4.79;100.00
34925;BME280;21130;51.728;8.748;2023-11-21T03:25:42;100000.78;;;4.82;100.00
34925;BME280;21130;51.728;8.748;2023-11-21T03:28:08;100010.25;;;4.86;100.00
34925;BME280;21130;51.728;8.748;2023-11-21T03:30:35;100009.84;;;4.89;100.00
34925;BME280;21130;51.728;8.748;2023-11-21T03:33:03;100016.56;;;4.93;100.00
34925;BME280;21130;51.728;8.748;2023-11-21T03:35:29;100014.44;;;4.95;100.00
34925;BME280;21130;51.728;8.748;2023-11-21T03:37:56;100014.81;;;4.99;100.00
34925;BME280;21130;51.728;8.748;2023-11-21T03:40:23;100017.38;;;5.01;100.00
34925;BME280;21130;51.728;8.748;2023-11-21T03:42:50;100027.50;;;5.07;100.00
34925;BME280;21130;51.728;8.748;2023-11-21T03:45:17;100014.34;;;5.09;100.00
34925;BME280;21130;51.728;8.748;2023-11-21T03:47:43;100017.09;;;5.09;100.00
34925;BME280;21130;51.728;8.748;2023-11-21T03:50:11;100024.94;;;5.12;100.00
34925;BME280;21130;51.728;8.748;2023-11-21T03:52:38;100028.28;;;5.14;100.00
34925;BME280;21130;51.728;8.748;2023-11-21T03:55:05;100030.38;;;5.18;100.00
34925;BME280;21130;51.728;8.748;2023-11-21T03:57:31;100022.75;;;5.20;100.00
34925;BME280;21130;51.728;8.748;2023-11-21T03:59:58;100039.66;;;5.24;100.00
34925;BME280;21130;51.728;8.748;2023-11-21T04:02:24;100041.13;;;5.27;100.00
34925;BME280;21130;51.728;8.748;2023-11-21T04:04:52;100045.34;;;5.29;100.00
34925;BME280;21130;51.728;8.748;2023-11-21T04:07:20;100043.19;;;5.31;100.00
34925;BME280;21130;51.728;8.748;2023-11-21T04:09:47;100050.97;;;5.41;100.00
34925;BME280;21130;51.728;8.748;2023-11-21T04:12:13;100040.41;;;5.38;100.00
34925;BME280;21130;51.728;8.748;2023-11-21T04:14:42;100046.75;;;5.38;100.00
34925;BME280;21130;51.728;8.748;2023-11-21T04:17:09;100056.81;;;5.51;100.00
34925;BME280;21130;51.728;8.748;2023-11-21T04:19:35;100049.16;;;5.60;100.00
34925;BME280;21130;51.728;8.748;2023-11-21T04:22:02;100054.81;;;5.65;100.00
34925;BME280;21130;51.728;8.748;2023-11-21T04:24:30;100061.44;;;5.57;100.00
34925;BME280;21130;51.728;8.748;2023-11-21T04:26:57;100061.03;;;5.54;100.00
34925;BME280;21130;51.728;8.748;2023-11-21T04:29:23;100057.28;;;5.48;100.00
34925;BME280;21130;51.728;8.748;2023-11-21T04:31:50;100062.78;;;5.48;100.00
34925;BME280;21130;51.728;8.748;2023-11-21T04:34:16;100061.53;;;5.44;100.00
34925;BME280;21130;51.728;8.748;2023-11-21T04:36:44;100061.50;;;5.51;100.00
34925;BME280;21130;51.728;8.748;2023-11-21T04:45:25;100071.38;;;5.58;100.00
34925;BME280;21130;51.728;8.748;2023-11-21T04:47:51;100073.91;;;5.60;100.00
34925;BME280;21130;51.728;8.748;2023-11-21T04:50:18;100077.06;;;5.63;100.00
34925;BME280;21130;51.728;8.748;2023-11-21T04:52:45;100079.81;;;5.63;100.00
34925;BME280;21130;51.728;8.748;2023-11-21T04:55:12;100085.09;;;5.65;100.00
34925;BME280;21130;51.728;8.748;2023-11-21T04:57:40;100090.75;;;5.77;100.00
34925;BME280;21130;51.728;8.748;2023-11-21T05:00:08;100090.75;;;5.77;100.00
34925;BME280;21130;51.728;8.748;2023-11-21T05:02:36;100097.53;;;5.74;100.00
34925;BME280;21130;51.728;8.748;2023-11-21T05:05:03;100098.59;;;5.73;100.00
34925;BME280;21130;51.728;8.748;2023-11-21T05:07:31;100097.09;;;5.77;100.00
34925;BME280;21130;51.728;8.748;2023-11-21T05:10:00;100094.56;;;5.76;100.00
34925;BME280;21130;51.728;8.748;2023-11-21T05:12:31;100101.53;;;5.78;100.00
34925;BME280;21130;51.728;8.748;2023-11-21T05:15:05;100098.09;;;5.83;100.00
34925;BME280;21130;51.728;8.748;2023-11-21T05:17:36;100093.88;;;5.80;100.00
34925;BME280;21130;51.728;8.748;2023-11-21T05:20:05;100101.06;;;5.81;100.00
34925;BME280;21130;51.728;8.748;2023-11-21T05:22:34;100093.44;;;5.83;100.00
34925;BME280;21130;51.728;8.748;2023-11-21T05:25:00;100098.09;;;5.83;100.00
34925;BME280;21130;51.728;8.748;2023-11-21T05:27:29;100085.06;;;5.97;100.00
34925;BME280;21130;51.728;8.748;2023-11-21T05:29:56;100104.59;;;5.95;100.00
34925;BME280;21130;51.728;8.748;2023-11-21T05:32:22;100102.47;;;5.91;100.00
34925;BME280;21130;51.728;8.748;2023-11-21T05:34:50;100105.25;;;5.91;100.00
34925;BME280;21130;51.728;8.748;2023-11-21T05:37:17;100103.16;;;5.86;100.00
34925;BME280;21130;51.728;8.748;2023-11-21T05:39:43;100113.13;;;5.87;100.00
34925;BME280;21130;51.728;8.748;2023-11-21T05:42:10;100111.50;;;5.79;100.00
34925;BME280;21130;51.728;8.748;2023-11-21T05:44:37;100107.88;;;5.79;100.00
34925;BME280;21130;51.728;8.748;2023-11-21T05:47:04;100119.75;;;5.79;100.00
34925;BME280;21130;51.728;8.748;2023-11-21T05:49:32;100120.13;;;5.83;100.00
34925;BME280;21130;51.728;8.748;2023-11-21T05:52:00;100119.69;;;5.86;100.00
34925;BME280;21130;51.728;8.748;2023-11-21T05:54:27;100123.44;;;5.92;100.00
34925;BME280;21130;51.728;8.748;2023-11-21T05:56:54;100127.25;;;5.97;100.00
34925;BME280;21130;51.728;8.748;2023-11-21T05:59:21;100125.97;;;5.93;100.00
34925;BME280;21130;51.728;8.748;2023-11-21T06:01:47;100129.59;;;5.94;100.00
34925;BME280;21130;51.728;8.748;2023-11-21T06:04:14;100122.38;;;5.93;100.00
34925;BME280;21130;51.728;8.748;2023-11-21T06:06:40;100123.66;;;5.97;100.00
34925;BME280;21130;51.728;8.748;2023-11-21T06:09:08;100128.56;;;5.95;100.00
34925;BME280;21130;51.728;8.748;2023-11-21T06:11:35;100133.81;;;5.96;100.00
34925;BME280;21130;51.728;8.748;2023-11-21T06:14:02;100128.31;;;5.96;100.00
34925;BME280;21130;51.728;8.748;2023-11-21T06:16:28;100127.88;;;5.99;100.00
34925;BME280;21130;51.728;8.748;2023-11-21T06:18:55;100134.88;;;6.02;100.00
34925;BME280;21130;51.728;8.748;2023-11-21T06:21:21;100133.16;;;6.01;100.00
34925;BME280;21130;51.728;8.748;2023-11-21T06:23:48;100144.19;;;6.01;100.00
34925;BME280;21130;51.728;8.748;2023-11-21T06:26:16;100145.47;;;5.98;100.00
34925;BME280;21130;51.728;8.748;2023-11-21T06:28:42;100153.53;;;6.00;100.00
34925;BME280;21130;51.728;8.748;2023-11-21T06:31:09;100164.28;;;6.01;100.00
34925;BME280;21130;51.728;8.748;2023-11-21T06:33:36;100162.19;;;5.97;100.00
34925;BME280;21130;51.728;8.748;2023-11-21T06:36:02;100166.22;;;6.01;100.00
34925;BME280;21130;51.728;8.748;2023-11-21T06:38:29;100166.84;;;6.03;100.00
34925;BME280;21130;51.728;8.748;2023-11-21T06:40:57;100169.38;;;6.04;100.00
34925;BME280;21130;51.728;8.748;2023-11-21T06:43:28;100176.94;;;6.09;100.00
34925;BME280;21130;51.728;8.748;2023-11-21T06:45:56;100175.06;;;6.10;100.00
34925;BME280;21130;51.728;8.748;2023-11-21T06:48:24;100171.91;;;6.06;100.00
34925;BME280;21130;51.728;8.748;2023-11-21T06:50:50;100177.66;;;6.04;100.00
34925;BME280;21130;51.728;8.748;2023-11-21T06:53:17;100186.97;;;6.03;100.00
34925;BME280;21130;51.728;8.748;2023-11-21T06:55:44;100192.72;;;6.02;100.00
34925;BME280;21130;51.728;8.748;2023-11-21T06:58:11;100193.31;;;6.04;100.00
34925;BME280;21130;51.728;8.748;2023-11-21T07:00:40;100194.59;;;6.01;100.00
34925;BME280;21130;51.728;8.748;2023-11-21T07:03:11;100205.59;;;6.08;100.00
34925;BME280;21130;51.728;8.748;2023-11-21T07:05:38;100206.88;;;6.05;100.00
34925;BME280;21130;51.728;8.748;2023-11-21T07:08:05;100211.09;;;6.08;100.00
34925;BME280;21130;51.728;8.748;2023-11-21T07:10:32;100218.25;;;6.16;100.00
34925;BME280;21130;51.728;8.748;2023-11-21T07:13:00;100215.03;;;6.19;100.00
34925;BME280;21130;51.728;8.748;2023-11-21T07:15:26;100208.03;;;6.23;100.00
34925;BME280;21130;51.728;8.748;2023-11-21T07:17:54;100224.13;;;6.19;100.00
34925;BME280;21130;51.728;8.748;2023-11-21T07:20:21;100218.84;;;6.24;100.00
34925;BME280;21130;51.728;8.748;2023-11-21T07:22:47;100222.25;;;6.20;100.00
34925;BME280;21130;51.728;8.748;2023-11-21T07:25:14;100227.13;;;6.18;100.00
34925;BME280;21130;51.728;8.748;2023-11-21T07:27:41;100229.06;;;6.17;100.00
34925;BME280;21130;51.728;8.748;2023-11-21T07:30:09;100241.75;;;6.18;100.00
34925;BME280;21130;51.728;8.748;2023-11-21T07:32:35;100237.91;;;6.19;100.00
34925;BME280;21130;51.728;8.748;2023-11-21T07:35:04;100241.94;;;6.23;100.00
34925;BME280;21130;51.728;8.748;2023-11-21T07:37:30;100247.59;;;6.28;100.00
34925;BME280;21130;51.728;8.748;2023-11-21T07:39:57;100254.13;;;6.34;100.00
34925;BME280;21130;51.728;8.748;2023-11-21T07:42:24;100252.47;;;6.33;100.00
34925;BME280;21130;51.728;8.748;2023-11-21T07:55:10;100269.16;;;6.38;100.00
34925;BME280;21130;51.728;8.748;2023-11-21T07:57:36;100275.34;;;6.34;100.00
34925;BME280;21130;51.728;8.748;2023-11-21T08:00:04;100278.94;;;6.34;100.00
34925;BME280;21130;51.728;8.748;2023-11-21T08:02:34;100275.13;;;6.35;100.00
34925;BME280;21130;51.728;8.748;2023-11-21T08:05:00;100278.72;;;6.36;100.00
34925;BME280;21130;51.728;8.748;2023-11-21T08:07:27;100284.88;;;6.38;100.00
34925;BME280;21130;51.728;8.748;2023-11-21T08:09:54;100281.44;;;6.42;100.00
34925;BME280;21130;51.728;8.748;2023-11-21T08:12:23;100288.44;;;6.45;100.00
34925;BME280;21130;51.728;8.748;2023-11-21T08:14:49;100291.44;;;6.37;100.00
34925;BME280;21130;51.728;8.748;2023-11-21T08:17:16;100297.38;;;6.40;100.00
34925;BME280;21130;51.728;8.748;2023-11-21T08:19:45;100300.94;;;6.41;100.00
34925;BME280;21130;51.728;8.748;2023-11-21T08:22:14;100303.91;;;6.39;100.00
34925;BME280;21130;51.728;8.748;2023-11-21T08:24:42;100299.44;;;6.45;100.00
34925;BME280;21130;51.728;8.748;2023-11-21T08:27:09;100305.81;;;6.45;100.00
34925;BME280;21130;51.728;8.748;2023-11-21T08:29:37;100302.03;;;6.40;100.00
34925;BME280;21130;51.728;8.748;2023-11-21T08:32:04;100307.31;;;6.41;100.00
34925;BME280;21130;51.728;8.748;2023-11-21T08:34:30;100304.97;;;6.45;100.00
34925;BME280;21130;51.728;8.748;2023-11-21T08:36:57;100304.56;;;6.41;100.00
34925;BME280;21130;51.728;8.748;2023-11-21T08:39:24;100302.03;;;6.40;100.00
34925;BME280;21130;51.728;8.748;2023-11-21T08:41:52;100304.97;;;6.45;100.00
34925;BME280;21130;51.728;8.748;2023-11-21T08:44:18;100297.75;;;6.44;100.00
34925;BME280;21130;51.728;8.748;2023-11-21T08:46:46;100302.81;;;6.47;100.00
34925;BME280;21130;51.728;8.748;2023-11-21T08:49:13;100309.19;;;6.47;100.00
34925;BME280;21130;51.728;8.748;2023-11-21T08:51:40;100310.66;;;6.50;100.00
34925;BME280;21130;51.728;8.748;2023-11-21T08:57:14;100322.53;;;6.51;100.00
34925;BME280;21130;51.728;8.748;2023-11-21T08:59:41;100333.72;;;6.56;100.00
34925;BME280;21130;51.728;8.748;2023-11-21T09:02:09;100335.41;;;6.57;100.00
34925;BME280;21130;51.728;8.748;2023-11-21T09:04:35;100335.47;;;6.50;100.00
34925;BME280;21130;51.728;8.748;2023-11-21T09:07:02;100350.47;;;6.54;100.00
34925;BME280;21130;51.728;8.748;2023-11-21T09:09:29;100343.47;;;6.58;100.00
34925;BME280;21130;51.728;8.748;2023-11-21T09:11:56;100346.41;;;6.63;100.00
34925;BME280;21130;51.728;8.748;2023-11-21T09:14:22;100353.59;;;6.64;100.00
34925;BME280;21130;51.728;8.748;2023-11-21T09:16:49;100354.66;;;6.63;100.00
34925;BME280;21130;51.728;8.748;2023-11-21T09:19:17;100359.28;;;6.69;100.00
34925;BME280;21130;51.728;8.748;2023-11-21T09:21:43;100359.53;;;6.68;100.00
34925;BME280;21130;51.728;8.748;2023-11-21T09:24:10;100366.78;;;6.62;100.00
34925;BME280;21130;51.728;8.748;2023-11-21T09:26:36;100365.88;;;6.68;100.00
34925;BME280;21130;51.728;8.748;2023-11-21T09:29:03;100363.28;;;6.74;100.00
34925;BME280;21130;51.728;8.748;2023-11-21T09:31:30;100368.34;;;6.77;100.00
34925;BME280;21130;51.728;8.748;2023-11-21T09:33:56;100375.41;;;6.73;100.00
34925;BME280;21130;51.728;8.748;2023-11-21T09:36:24;100382.38;;;6.75;100.00
34925;BME280;21130;51.728;8.748;2023-11-21T09:38:55;100373.88;;;6.77;100.00
34925;BME280;21130;51.728;8.748;2023-11-21T09:41:29;100389.81;;;6.75;100.00
34925;BME280;21130;51.728;8.748;2023-11-21T09:44:02;100388.94;;;6.74;100.00
34925;BME280;21130;51.728;8.748;2023-11-21T09:46:33;100387.91;;;6.75;100.00
34925;BME280;21130;51.728;8.748;2023-11-21T09:49:00;100385.19;;;6.68;100.00
34925;BME280;21130;51.728;8.748;2023-11-21T09:51:32;100395.13;;;6.69;100.00
34925;BME280;21130;51.728;8.748;2023-11-21T09:54:04;100392.03;;;6.59;100.00
34925;BME280;21130;51.728;8.748;2023-11-21T09:56:34;100397.72;;;6.64;100.00
34925;BME280;21130;51.728;8.748;2023-11-21T10:05:53;100409.81;;;6.63;100.00
34925;BME280;21130;51.728;8.748;2023-11-21T10:08:23;100403.47;;;6.63;100.00
34925;BME280;21130;51.728;8.748;2023-11-21T10:10:53;100402.81;;;6.67;100.00
34925;BME280;21130;51.728;8.748;2023-11-21T10:13:20;100400.06;;;6.67;100.00
34925;BME280;21130;51.728;8.748;2023-11-21T10:15:49;100403.00;;;6.66;100.00
34925;BME280;21130;51.728;8.748;2023-11-21T10:18:16;100405.56;;;6.67;100.00
34925;BME280;21130;51.728;8.748;2023-11-21T10:20:44;100401.09;;;6.66;100.00
34925;BME280;21130;51.728;8.748;2023-11-21T10:23:18;100411.09;;;6.67;100.00
34925;BME280;21130;51.728;8.748;2023-11-21T10:25:47;100413.22;;;6.65;100.00
34925;BME280;21130;51.728;8.748;2023-11-21T10:28:15;100415.06;;;6.71;100.00
34925;BME280;21130;51.728;8.748;2023-11-21T10:30:41;100413.78;;;6.74;100.00
34925;BME280;21130;51.728;8.748;2023-11-21T10:33:09;100416.31;;;6.76;100.00
34925;BME280;21130;51.728;8.748;2023-11-21T10:35:42;100421.84;;;6.76;100.00
34925;BME280;21130;51.728;8.748;2023-11-21T10:38:12;100424.78;;;6.81;100.00
34925;BME280;21130;51.728;8.748;2023-11-21T10:40:40;100423.88;;;6.87;100.00
34925;BME280;21130;51.728;8.748;2023-11-21T10:43:08;100433.78;;;6.95;100.00
34925;BME280;21130;51.728;8.748;2023-11-21T10:45:36;100430.38;;;6.99;100.00
34925;BME280;21130;51.728;8.748;2023-11-21T10:48:05;100437.19;;;6.97;100.00
34925;BME280;21130;51.728;8.748;2023-11-21T10:50:33;100423.63;;;6.95;100.00
34925;BME280;21130;51.728;8.748;2023-11-21T10:53:01;100429.94;;;7.02;100.00
34925;BME280;21130;51.728;8.748;2023-11-21T10:55:29;100438.44;;;7.01;100.00
34925;BME280;21130;51.728;8.748;2023-11-21T10:57:58;100438.63;;;7.06;100.00
34925;BME280;21130;51.728;8.748;2023-11-21T11:00:26;100435.84;;;7.06;100.00
34925;BME280;21130;51.728;8.748;2023-11-21T11:02:54;100433.44;;;7.16;100.00
34925;BME280;21130;51.728;8.748;2023-11-21T11:05:22;100435.56;;;7.14;100.00
34925;BME280;21130;51.728;8.748;2023-11-21T11:07:52;100437.31;;;7.08;100.00
34925;BME280;21130;51.728;8.748;2023-11-21T11:10:27;100441.50;;;7.18;100.00
34925;BME280;21130;51.728;8.748;2023-11-21T11:12:54;100437.66;;;7.19;100.00
34925;BME280;21130;51.728;8.748;2023-11-21T11:15:23;100442.34;;;7.18;100.00
34925;BME280;21130;51.728;8.748;2023-11-21T11:17:51;100433.66;;;7.14;100.00
34925;BME280;21130;51.728;8.748;2023-11-21T11:20:22;100438.91;;;7.23;100.00
34925;BME280;21130;51.728;8.748;2023-11-21T11:23:04;100441.22;;;7.26;100.00
34925;BME280;21130;51.728;8.748;2023-11-21T11:26:01;100446.25;;;7.35;100.00
34925;BME280;21130;51.728;8.748;2023-11-21T11:28:37;100459.22;;;7.35;100.00
34925;BME280;21130;51.728;8.748;2023-11-21T11:31:16;100463.97;;;7.46;100.00
34925;BME280;21130;51.728;8.748;2023-11-21T11:33:50;100462.06;;;7.47;100.00
34925;BME280;21130;51.728;8.748;2023-11-21T11:36:24;100463.31;;;7.51;100.00
34925;BME280;21130;51.728;8.748;2023-11-21T11:38:52;100463.16;;;7.46;100.00
34925;BME280;21130;51.728;8.748;2023-11-21T11:41:25;100471.13;;;7.54;100.00
34925;BME280;21130;51.728;8.748;2023-11-21T11:43:52;100465.22;;;7.50;100.00
34925;BME280;21130;51.728;8.748;2023-11-21T11:46:19;100460.53;;;7.51;100.00
34925;BME280;21130;51.728;8.748;2023-11-21T11:49:02;100463.19;;;7.39;100.00
34925;BME280;21130;51.728;8.748;2023-11-21T11:51:29;100467.50;;;7.35;100.00
34925;BME280;21130;51.728;8.748;2023-11-21T11:53:56;100475.34;;;7.31;100.00
34925;BME280;21130;51.728;8.748;2023-11-21T11:56:25;100473.00;;;7.35;100.00
34925;BME280;21130;51.728;8.748;2023-11-21T11:58:51;100476.25;;;7.25;100.00
34925;BME280;21130;51.728;8.748;2023-11-21T12:01:18;100482.97;;;7.36;100.00
34925;BME280;21130;51.728;8.748;2023-11-21T12:04:25;100480.41;;;7.34;100.00
34925;BME280;21130;51.728;8.748;2023-11-21T12:07:02;100479.59;;;7.34;100.00
34925;BME280;21130;51.728;8.748;2023-11-21T12:09:31;100481.97;;;7.30;100.00
34925;BME280;21130;51.728;8.748;2023-11-21T12:12:00;100476.03;;;7.27;100.00
34925;BME280;21130;51.728;8.748;2023-11-21T12:14:27;100485.78;;;7.29;100.00
34925;BME280;21130;51.728;8.748;2023-11-21T12:16:54;100487.56;;;7.17;100.00
34925;BME280;21130;51.728;8.748;2023-11-21T12:19:20;100493.81;;;7.06;100.00
34925;BME280;21130;51.728;8.748;2023-11-21T12:21:49;100501.00;;;7.07;100.00
34925;BME280;21130;51.728;8.748;2023-11-21T12:24:17;100500.16;;;7.06;100.00
34925;BME280;21130;51.728;8.748;2023-11-21T12:26:44;100508.16;;;7.14;100.00
34925;BME280;21130;51.728;8.748;2023-11-21T12:29:11;100512.00;;;7.13;100.00
34925;BME280;21130;51.728;8.748;2023-11-21T12:31:37;100517.53;;;7.13;100.00
34925;BME280;21130;51.728;8.748;2023-11-21T12:34:05;100514.97;;;7.12;100.00
34925;BME280;21130;51.728;8.748;2023-11-21T12:36:32;100521.38;;;7.12;100.00
34925;BME280;21130;51.728;8.748;2023-11-21T12:39:01;100523.88;;;7.14;100.00
34925;BME280;21130;51.728;8.748;2023-11-21T12:41:28;100535.16;;;7.12;100.00
34925;BME280;21130;51.728;8.748;2023-11-21T12:43:56;100530.25;;;7.14;100.00
34925;BME280;21130;51.728;8.748;2023-11-21T12:46:22;100542.38;;;7.13;100.00
34925;BME280;21130;51.728;8.748;2023-11-21T12:48:51;100539.88;;;7.05;100.00
34925;BME280;21130;51.728;8.748;2023-11-21T12:51:18;100539.25;;;7.03;100.00
34925;BME280;21130;51.728;8.748;2023-11-21T12:53:44;100540.75;;;6.99;100.00
34925;BME280;21130;51.728;8.748;2023-11-21T12:56:13;100544.97;;;7.02;100.00
34925;BME280;21130;51.728;8.748;2023-11-21T12:58:45;100544.59;;;6.91;100.00
34925;BME280;21130;51.728;8.748;2023-11-21T13:01:13;100554.81;;;6.91;100.00
34925;BME280;21130;51.728;8.748;2023-11-21T13:03:47;100546.16;;;6.81;100.00
34925;BME280;21130;51.728;8.748;2023-11-21T13:06:17;100555.44;;;6.86;100.00
34925;BME280;21130;51.728;8.748;2023-11-21T13:08:44;100551.28;;;6.70;100.00
34925;BME280;21130;51.728;8.748;2023-11-21T13:11:13;100544.50;;;6.73;100.00
34925;BME280;21130;51.728;8.748;2023-11-21T13:13:41;100557.44;;;6.66;100.00
34925;BME280;21130;51.728;8.748;2023-11-21T13:16:09;100566.38;;;6.61;100.00
34925;BME280;21130;51.728;8.748;2023-11-21T13:18:36;100572.34;;;6.58;100.00
34925;BME280;21130;51.728;8.748;2023-11-21T13:21:04;100579.75;;;6.58;100.00
34925;BME280;21130;51.728;8.748;2023-11-21T13:23:36;100581.69;;;6.51;100.00